KMFV/MFV METAR and TAF weather

Enter ICAO airport designator
Station Type Date Time Source
KMFV METAR 2020/12/05 05:35 UTC NOAA

KMFV 050535Z AUTO 14008KT 10SM DZ OVC007 14/14 A2973 RMK AO2 P0003 T01400136


Station Type Date Time Source
KMFV Decoded METAR 2020/12/05 05:35 UTC NOAA

Melfa / Accomack Airport, VA, United States (KMFV) 37-39N 075-46W
Dec 05, 2020 - 12:35 AM EST / 2020.12.05 0535 UTC
Wind: from the SE (140 degrees) at 9 MPH (8 KT):0
Visibility: 10 mile(s):0
Sky conditions: overcast
Weather: drizzle
Precipitation last hour: 0.03 inches
Temperature: 57.2 F (14.0 C)
Dew Point: 56.5 F (13.6 C)
Relative Humidity: 97%
Pressure (altimeter): 29.73 in. Hg (1006 hPa)
ob: KMFV 050535Z AUTO 14008KT 10SM DZ OVC007 14/14 A2973 RMK AO2 P0003 T01400136
cycle: 5

Station Type Date Time Source
KMFV TAF UTC NOAA

Error!

Example: see airport list